Time;durP1;ratioP1;P1;durP2;ratioP2;P2;SDS_P1;SDS_P2;PMS_P1;PMS_P2;Temp;Humidity;BMP_temperature;BMP_pressure;BME280_temperature;BME280_humidity;BME280_pressure;Samples;Min_cycle;Max_cycle;Signal;HPM_P1;HPM_P2
2021/09/17 00:00:12;;;;;;;3.72;3.30;;;18.70;92.30;;;;;;5117184;28;20050;-76
2021/09/17 00:02:38;;;;;;;5.03;3.47;;;18.60;91.90;;;;;;5117257;28;20130;-76
2021/09/17 00:05:06;;;;;;;4.20;3.50;;;18.60;98.40;;;;;;5116899;27;20126;-76
2021/09/17 00:07:32;;;;;;;5.97;3.88;;;18.50;98.40;;;;;;5117207;28;20185;-76
2021/09/17 00:09:57;;;;;;;4.00;3.30;;;18.50;89.00;;;;;;5117048;28;20497;-76
2021/09/17 00:12:24;;;;;;;5.72;3.40;;;18.60;85.20;;;;;;5117042;28;20169;-76
2021/09/17 00:14:50;;;;;;;4.55;3.28;;;18.50;81.80;;;;;;5116931;28;20111;-76
2021/09/17 00:17:16;;;;;;;4.07;3.20;;;18.50;89.70;;;;;;5116764;28;20122;-76
2021/09/17 00:19:42;;;;;;;4.30;3.47;;;18.60;92.50;;;;;;5115524;28;20359;-76
2021/09/17 00:22:08;;;;;;;5.57;3.72;;;18.50;99.70;;;;;;5116812;28;20072;-76
2021/09/17 00:24:33;;;;;;;4.03;3.63;;;18.50;97.70;;;;;;5117108;28;20035;-76
2021/09/17 00:27:00;;;;;;;3.95;3.20;;;18.50;97.40;;;;;;5116331;28;20047;-76
2021/09/17 00:29:26;;;;;;;4.50;3.50;;;18.50;97.20;;;;;;5116703;28;20059;-76
2021/09/17 00:31:51;;;;;;;6.13;3.67;;;18.50;99.10;;;;;;5116428;28;20043;-76
2021/09/17 00:34:17;;;;;;;5.43;3.50;;;18.50;99.90;;;;;;5116758;28;20043;-76
2021/09/17 00:36:43;;;;;;;4.45;3.38;;;18.50;99.90;;;;;;5116547;28;20398;-76
2021/09/17 00:39:13;;;;;;;4.28;3.30;;;18.50;93.50;;;;;;5116527;28;20092;-76
2021/09/17 00:41:40;;;;;;;4.82;3.17;;;18.50;92.10;;;;;;5116708;28;20043;-76
2021/09/17 00:44:07;;;;;;;3.78;3.47;;;18.60;88.50;;;;;;5116405;28;20031;-76
2021/09/17 00:46:33;;;;;;;3.83;3.28;;;18.60;86.20;;;;;;5116102;28;20043;-76
2021/09/17 00:48:58;;;;;;;4.55;3.72;;;18.50;95.10;;;;;;5115966;28;20043;-76
2021/09/17 00:51:25;;;;;;;3.72;3.08;;;18.50;90.90;;;;;;5116022;28;20040;-76
2021/09/17 00:53:51;;;;;;;3.40;3.17;;;18.40;93.90;;;;;;5116212;28;20057;-76
2021/09/17 00:56:17;;;;;;;3.65;3.35;;;18.40;95.60;;;;;;5116576;28;20401;-76
2021/09/17 00:58:43;;;;;;;6.22;3.33;;;18.40;93.70;;;;;;5116106;28;20036;-76
2021/09/17 01:01:09;;;;;;;4.43;3.20;;;18.50;90.10;;;;;;5115902;28;20031;-76
2021/09/17 01:03:34;;;;;;;7.05;3.45;;;18.60;74.90;;;;;;5116240;28;20036;-76
2021/09/17 01:06:04;;;;;;;3.47;3.17;;;18.60;64.00;;;;;;5115934;28;20474;-76
2021/09/17 01:08:31;;;;;;;3.75;3.45;;;18.60;69.70;;;;;;5116177;28;20045;-76
2021/09/17 01:10:59;;;;;;;4.45;3.90;;;18.60;66.70;;;;;;5115865;28;20039;-76
2021/09/17 01:13:26;;;;;;;4.05;3.42;;;18.60;69.50;;;;;;5116132;28;20069;-76
2021/09/17 01:15:52;;;;;;;5.35;3.20;;;18.60;60.50;;;;;;5115920;28;20047;-76
2021/09/17 01:18:18;;;;;;;5.90;4.03;;;18.60;88.70;;;;;;5115826;28;20497;-76
2021/09/17 01:20:44;;;;;;;4.40;4.00;;;18.50;73.10;;;;;;5116263;28;20047;-76
2021/09/17 01:23:10;;;;;;;7.88;3.88;;;18.50;84.50;;;;;;5115672;28;20032;-76
2021/09/17 01:25:36;;;;;;;5.22;4.10;;;18.40;92.00;;;;;;5115547;28;20051;-76
2021/09/17 01:28:02;;;;;;;4.90;4.38;;;18.30;92.50;;;;;;5115597;28;20039;-76
2021/09/17 01:30:28;;;;;;;4.90;4.43;;;18.30;62.00;;;;;;5115349;28;20043;-76
2021/09/17 01:32:54;;;;;;;5.57;4.03;;;18.30;59.20;;;;;;5115441;28;20569;-76
2021/09/17 01:35:22;;;;;;;5.22;4.25;;;18.30;71.40;;;;;;5115430;28;20041;-76
2021/09/17 01:37:49;;;;;;;6.53;4.20;;;18.30;68.90;;;;;;5114083;28;20406;-76
2021/09/17 01:40:16;;;;;;;5.72;3.97;;;18.20;71.10;;;;;;5115308;27;20075;-76
2021/09/17 01:42:43;;;;;;;4.15;3.80;;;18.20;91.80;;;;;;5115339;28;20039;-76
2021/09/17 01:45:11;;;;;;;6.68;3.80;;;18.20;76.10;;;;;;5114100;28;20067;-76
2021/09/17 01:47:38;;;;;;;4.00;3.60;;;18.20;73.70;;;;;;5115459;28;20065;-76
2021/09/17 01:50:05;;;;;;;4.00;3.70;;;18.10;90.90;;;;;;5115435;28;20359;-76
2021/09/17 01:52:31;;;;;;;4.07;3.25;;;18.20;51.60;;;;;;5115271;28;20035;-76
2021/09/17 01:54:56;;;;;;;3.80;3.33;;;18.30;40.50;;;;;;5115192;28;20482;-76
2021/09/17 01:57:22;;;;;;;5.05;3.50;;;18.40;37.40;;;;;;5115190;28;20156;-76
2021/09/17 01:59:48;;;;;;;3.45;3.15;;;18.40;41.40;;;;;;5115153;28;20035;-76
2021/09/17 02:02:14;;;;;;;4.78;3.17;;;18.40;51.00;;;;;;5114742;28;20038;-76
2021/09/17 02:04:40;;;;;;;3.65;3.25;;;18.40;37.20;;;;;;5115396;28;20036;-77
2021/09/17 02:07:05;;;;;;;3.53;3.20;;;18.40;42.20;;;;;;5114906;28;20453;-76
2021/09/17 02:09:31;;;;;;;4.40;3.42;;;18.40;49.60;;;;;;5115268;28;20030;-76
2021/09/17 02:11:57;;;;;;;4.65;3.10;;;18.40;42.50;;;;;;5114855;28;20043;-76
2021/09/17 02:14:23;;;;;;;4.53;3.70;;;18.40;45.70;;;;;;5114685;28;20043;-76
2021/09/17 02:16:48;;;;;;;3.67;3.30;;;18.40;44.80;;;;;;5114521;28;20565;-76
2021/09/17 02:19:14;;;;;;;5.10;3.65;;;18.40;53.30;;;;;;5114651;28;20059;-76
2021/09/17 02:21:40;;;;;;;6.18;3.70;;;18.40;66.60;;;;;;5115172;28;20050;-76
2021/09/17 02:24:07;;;;;;;5.32;3.75;;;18.40;58.80;;;;;;5114870;28;20431;-76
2021/09/17 02:26:33;;;;;;;3.40;3.00;;;18.40;61.20;;;;;;5114414;28;20035;-76
2021/09/17 02:28:59;;;;;;;5.38;3.83;;;18.30;57.40;;;;;;5114858;28;20084;-76
2021/09/17 02:31:25;;;;;;;3.80;3.50;;;18.30;65.70;;;;;;5114531;28;20081;-76
2021/09/17 02:33:51;;;;;;;4.63;3.78;;;18.20;65.10;;;;;;5114730;28;20457;-76
2021/09/17 02:36:17;;;;;;;4.18;3.75;;;18.10;63.30;;;;;;5114695;28;20067;-76
2021/09/17 02:38:42;;;;;;;4.80;4.10;;;18.20;65.10;;;;;;5114789;28;20044;-76
2021/09/17 02:41:08;;;;;;;5.82;4.30;;;18.20;72.90;;;;;;5114524;28;20065;-76
2021/09/17 02:43:34;;;;;;;4.93;4.38;;;18.20;67.10;;;;;;5114372;28;20039;-76
2021/09/17 02:46:00;;;;;;;5.63;3.88;;;18.20;64.10;;;;;;5114312;28;20586;-76
2021/09/17 02:48:28;;;;;;;5.47;3.92;;;18.20;67.60;;;;;;5114366;28;20042;-76
2021/09/17 02:50:53;;;;;;;4.72;4.32;;;18.10;77.80;;;;;;5114343;28;20117;-76
2021/09/17 02:53:19;;;;;;;5.15;3.78;;;18.20;40.80;;;;;;5114222;28;20035;-76
2021/09/17 02:55:45;;;;;;;5.55;3.70;;;18.20;44.10;;;;;;5114760;28;20035;-76
2021/09/17 02:58:11;;;;;;;4.80;4.00;;;18.20;62.70;;;;;;5114288;28;20043;-76
2021/09/17 03:00:39;;;;;;;6.05;3.85;;;18.20;59.00;;;;;;5114100;28;20043;-76
2021/09/17 03:03:05;;;;;;;7.93;4.18;;;18.20;63.80;;;;;;5114114;28;20040;-76
2021/09/17 03:05:31;;;;;;;6.13;3.83;;;18.10;64.00;;;;;;5113853;28;20039;-76
2021/09/17 03:07:57;;;;;;;5.13;4.55;;;18.20;47.60;;;;;;5114211;28;20054;-76
2021/09/17 03:10:23;;;;;;;4.80;4.28;;;18.10;37.70;;;;;;5114160;28;20027;-76
2021/09/17 03:12:49;;;;;;;5.05;4.10;;;18.10;47.90;;;;;;5114816;28;20047;-76
2021/09/17 03:15:15;;;;;;;4.93;3.53;;;18.10;49.70;;;;;;5117898;28;20118;-76
2021/09/17 03:17:41;;;;;;;4.35;4.05;;;18.10;61.90;;;;;;5117799;28;20177;-76
2021/09/17 03:20:07;;;;;;;5.93;4.30;;;18.00;56.90;;;;;;5116422;28;20499;-76
2021/09/17 03:22:33;;;;;;;5.90;3.80;;;18.00;75.90;;;;;;5117627;28;20081;-76
2021/09/17 03:24:59;;;;;;;6.68;4.00;;;17.90;74.90;;;;;;5117574;28;20067;-76
2021/09/17 03:27:25;;;;;;;6.53;4.22;;;17.80;91.20;;;;;;5117738;28;20043;-76
2021/09/17 03:29:51;;;;;;;5.80;4.40;;;17.80;78.10;;;;;;5117587;27;20524;-76
2021/09/17 03:32:16;;;;;;;5.70;3.90;;;17.80;74.50;;;;;;5117537;28;20050;-76
2021/09/17 03:34:44;;;;;;;4.38;3.90;;;17.90;80.10;;;;;;5117448;28;20054;-76
2021/09/17 03:37:10;;;;;;;7.45;3.80;;;17.90;72.80;;;;;;5117082;28;20031;-76
2021/09/17 03:39:36;;;;;;;6.68;4.00;;;17.80;77.00;;;;;;5117461;28;20045;-76
2021/09/17 03:42:02;;;;;;;4.15;3.67;;;17.90;59.40;;;;;;5117617;28;20078;-76
2021/09/17 03:44:27;;;;;;;3.78;3.47;;;17.90;53.80;;;;;;5117497;28;20407;-76
2021/09/17 03:46:53;;;;;;;5.63;4.28;;;17.90;64.00;;;;;;5116688;28;20071;-76
2021/09/17 03:49:20;;;;;;;6.03;3.80;;;17.90;61.90;;;;;;5117194;28;20024;-76
2021/09/17 03:51:46;;;;;;;4.88;3.50;;;17.90;65.00;;;;;;5117071;28;20031;-76
2021/09/17 03:54:12;;;;;;;6.43;3.92;;;17.90;75.20;;;;;;5117196;28;20028;-76
2021/09/17 03:56:38;;;;;;;4.18;3.65;;;17.80;68.40;;;;;;5117248;28;20040;-76
2021/09/17 03:59:03;;;;;;;6.03;4.22;;;17.80;66.10;;;;;;5114657;28;20047;-76
2021/09/17 04:01:29;;;;;;;5.75;4.28;;;17.90;39.90;;;;;;5095885;28;20640;-75
2021/09/17 04:03:55;;;;;;;6.18;4.10;;;17.80;80.70;;;;;;5096837;28;20035;-75
2021/09/17 04:06:21;;;;;;;6.65;4.15;;;17.70;95.30;;;;;;5096133;28;20048;-76
2021/09/17 04:08:47;;;;;;;7.70;4.32;;;17.60;99.90;;;;;;5096423;28;20047;-75
2021/09/17 04:11:13;;;;;;;5.28;4.38;;;17.50;99.90;;;;;;5098935;28;20031;-75
2021/09/17 04:13:38;;;;;;;5.13;4.63;;;17.40;99.90;;;;;;5096219;28;20115;-75
2021/09/17 04:16:05;;;;;;;4.88;4.00;;;17.30;99.90;;;;;;5096218;28;20040;-75
2021/09/17 04:18:31;;;;;;;5.63;4.00;;;17.20;99.90;;;;;;5095894;28;20043;-75
2021/09/17 04:20:56;;;;;;;9.23;4.75;;;17.20;99.90;;;;;;5094976;28;20105;-75
2021/09/17 04:23:22;;;;;;;4.82;4.40;;;17.20;99.90;;;;;;5094937;28;20063;-74
2021/09/17 04:25:48;;;;;;;6.00;5.05;;;17.20;99.90;;;;;;5094194;28;20051;-74
2021/09/17 04:28:14;;;;;;;5.22;4.43;;;17.20;99.90;;;;;;5094461;28;20146;-74
2021/09/17 04:30:40;;;;;;;6.25;4.30;;;17.20;99.90;;;;;;5093986;28;20566;-74
2021/09/17 04:33:06;;;;;;;5.35;4.85;;;17.30;99.90;;;;;;5094257;28;20081;-75
2021/09/17 04:35:32;;;;;;;7.45;5.35;;;17.30;99.90;;;;;;5094715;28;20115;-74
2021/09/17 04:37:59;;;;;;;6.22;5.53;;;17.30;99.90;;;;;;5094667;28;20059;-73
2021/09/17 04:40:25;;;;;;;6.03;5.00;;;17.30;99.90;;;;;;5095277;28;20064;-73
2021/09/17 04:42:51;;;;;;;7.90;5.32;;;17.20;99.90;;;;;;5095429;28;20035;-73
2021/09/17 04:45:18;;;;;;;6.93;4.80;;;17.10;99.90;;;;;;5095155;28;20368;-74
2021/09/17 04:47:44;;;;;;;6.57;5.07;;;17.00;99.90;;;;;;5094723;28;20127;-73
2021/09/17 04:50:10;;;;;;;8.10;5.35;;;17.00;99.90;;;;;;5093784;28;20165;-73
2021/09/17 04:52:37;;;;;;;8.07;5.90;;;16.90;99.90;;;;;;5093850;28;20047;-73
2021/09/17 04:55:03;;;;;;;10.27;6.10;;;16.90;99.90;;;;;;5093619;28;20415;-74
2021/09/17 04:57:30;;;;;;;6.90;6.03;;;16.90;99.90;;;;;;5093311;28;20494;-73
2021/09/17 04:59:56;;;;;;;8.02;5.82;;;16.90;99.90;;;;;;5093446;28;20093;-74
2021/09/17 05:02:22;;;;;;;6.55;5.43;;;17.00;99.90;;;;;;5094515;28;20036;-74
2021/09/17 05:04:48;;;;;;;8.93;5.82;;;17.00;99.90;;;;;;5095813;28;20055;-74
2021/09/17 05:07:14;;;;;;;10.45;5.53;;;17.00;99.90;;;;;;5095506;28;20047;-73
2021/09/17 05:09:39;;;;;;;6.10;5.50;;;17.00;99.90;;;;;;5095485;28;20046;-73
2021/09/17 05:12:06;;;;;;;10.50;5.47;;;17.10;99.90;;;;;;5095170;28;20036;-73
2021/09/17 05:14:33;;;;;;;7.57;5.60;;;17.00;99.90;;;;;;5095202;28;20102;-74
2021/09/17 05:16:59;;;;;;;10.13;5.85;;;17.00;99.90;;;;;;5095048;28;20113;-73
2021/09/17 05:19:25;;;;;;;6.18;5.55;;;17.00;99.90;;;;;;5095505;28;20493;-73
2021/09/17 05:21:55;;;;;;;7.53;4.95;;;17.00;99.90;;;;;;5095194;28;20032;-73
2021/09/17 05:24:22;;;;;;;11.75;5.70;;;17.00;99.90;;;;;;5095267;28;20126;-73
2021/09/17 05:26:48;;;;;;;6.78;5.20;;;17.00;99.90;;;;;;5095146;28;20071;-74
2021/09/17 05:29:14;;;;;;;6.47;5.85;;;16.90;99.90;;;;;;5095435;28;20495;-74
2021/09/17 05:31:40;;;;;;;10.30;5.10;;;16.90;99.90;;;;;;5094680;28;20067;-74
2021/09/17 05:34:06;;;;;;;6.93;5.28;;;17.00;99.90;;;;;;5094818;28;20043;-73
2021/09/17 05:36:32;;;;;;;10.18;5.82;;;17.00;99.90;;;;;;5094609;28;20039;-73
2021/09/17 05:38:58;;;;;;;6.45;5.20;;;17.00;99.90;;;;;;5095325;28;20044;-74
2021/09/17 05:41:24;;;;;;;9.60;5.72;;;17.00;99.90;;;;;;5094983;28;20501;-74
2021/09/17 05:43:51;;;;;;;8.05;5.88;;;17.00;99.90;;;;;;5094934;28;20148;-73
2021/09/17 05:46:17;;;;;;;6.55;5.35;;;17.00;99.90;;;;;;5094345;28;20121;-73
2021/09/17 05:48:43;;;;;;;7.65;5.05;;;16.90;99.90;;;;;;5093302;28;20035;-73
2021/09/17 05:51:09;;;;;;;5.93;5.03;;;17.00;99.90;;;;;;5092165;28;20054;-74
2021/09/17 05:53:35;;;;;;;7.72;5.60;;;17.00;99.90;;;;;;5091810;28;20032;-74
2021/09/17 05:56:01;;;;;;;8.23;5.05;;;17.10;99.90;;;;;;5092036;28;20123;-74
2021/09/17 05:58:31;;;;;;;7.60;5.97;;;17.00;99.90;;;;;;5093388;28;20047;-73
2021/09/17 06:01:00;;;;;;;10.00;5.47;;;17.10;99.90;;;;;;5094026;28;20044;-74
2021/09/17 06:03:25;;;;;;;7.15;5.05;;;17.20;99.90;;;;;;5094665;28;20040;-73
2021/09/17 06:05:51;;;;;;;5.43;4.85;;;17.20;99.90;;;;;;5094524;28;20044;-74
2021/09/17 06:08:17;;;;;;;5.53;5.03;;;17.10;99.90;;;;;;5094890;28;20097;-74
2021/09/17 06:10:43;;;;;;;6.30;5.43;;;17.10;99.90;;;;;;5094974;28;20050;-74
2021/09/17 06:13:09;;;;;;;4.93;4.20;;;17.10;99.90;;;;;;5093314;28;20504;-74
2021/09/17 06:15:35;;;;;;;8.20;4.72;;;17.20;99.90;;;;;;5093552;28;20533;-74
2021/09/17 06:18:01;;;;;;;4.88;4.47;;;17.20;99.90;;;;;;5094338;28;20039;-73
2021/09/17 06:20:26;;;;;;;5.45;4.70;;;17.30;99.90;;;;;;5094821;28;20040;-74
2021/09/17 06:22:55;;;;;;;8.40;4.60;;;17.40;99.90;;;;;;5094422;28;20043;-74
2021/09/17 06:25:22;;;;;;;6.90;4.57;;;17.50;99.90;;;;;;5094217;28;20144;-74
2021/09/17 06:27:49;;;;;;;8.35;4.78;;;17.50;99.90;;;;;;5094891;28;20051;-73
2021/09/17 06:30:17;;;;;;;5.50;4.40;;;17.50;99.90;;;;;;5094386;28;20040;-74
2021/09/17 06:32:44;;;;;;;5.85;4.80;;;17.50;99.90;;;;;;5094235;28;20040;-74
2021/09/17 06:35:11;;;;;;;8.43;5.13;;;17.50;99.90;;;;;;5094660;28;20040;-74
2021/09/17 06:37:45;;;;;;;5.22;4.70;;;17.60;99.90;;;;;;5094853;28;20075;-74
2021/09/17 06:40:12;;;;;;;6.55;4.50;;;17.70;99.90;;;;;;5094601;28;20044;-74
2021/09/17 06:42:37;;;;;;;4.97;4.47;;;17.80;99.90;;;;;;5094691;28;20040;-74
2021/09/17 06:45:04;;;;;;;7.50;4.55;;;17.80;99.90;;;;;;5094400;28;20040;-74
2021/09/17 06:47:29;;;;;;;6.30;4.80;;;17.80;98.10;;;;;;5094871;28;20127;-77
2021/09/17 06:49:59;;;;;;;7.15;4.90;;;17.80;98.90;;;;;;5098023;28;20703;-74
2021/09/17 06:52:25;;;;;;;4.90;4.47;;;17.80;99.90;;;;;;5098048;28;20048;-74
2021/09/17 06:54:51;;;;;;;5.50;4.75;;;17.90;99.90;;;;;;5098163;28;20134;-74
2021/09/17 06:57:17;;;;;;;6.28;5.00;;;18.10;99.90;;;;;;5098389;28;20044;-74
2021/09/17 06:59:43;;;;;;;5.63;4.30;;;18.10;87.20;;;;;;5097882;28;20036;-74
2021/09/17 07:02:10;;;;;;;4.72;4.32;;;18.20;81.10;;;;;;5098067;28;20119;-74
2021/09/17 07:04:36;;;;;;;5.30;4.57;;;18.20;82.50;;;;;;5097666;28;20032;-75
2021/09/17 07:07:02;;;;;;;4.50;4.10;;;18.20;62.60;;;;;;5096931;28;20047;-73
2021/09/17 07:09:27;;;;;;;7.30;4.72;;;18.40;56.20;;;;;;5098393;28;20040;-73
2021/09/17 07:11:53;;;;;;;6.18;4.85;;;18.40;48.70;;;;;;5097956;28;20142;-73
2021/09/17 07:14:19;;;;;;;5.57;5.03;;;18.60;24.20;;;;;;5097772;28;20039;-74
2021/09/17 07:16:45;;;;;;;5.30;4.80;;;18.60;25.60;;;;;;5096990;28;20040;-74
2021/09/17 07:19:11;;;;;;;5.45;4.80;;;18.60;38.10;;;;;;5098128;28;20042;-74
2021/09/17 07:21:36;;;;;;;6.57;4.55;;;18.50;27.60;;;;;;5097602;28;20047;-74
2021/09/17 07:24:02;;;;;;;6.40;4.32;;;18.50;30.00;;;;;;5097484;28;20063;-73
2021/09/17 07:26:28;;;;;;;4.90;4.40;;;18.60;29.20;;;;;;5097167;28;20086;-74
2021/09/17 07:28:54;;;;;;;7.20;4.90;;;18.60;47.70;;;;;;5096920;28;20051;-74
2021/09/17 07:31:20;;;;;;;7.68;5.03;;;18.60;53.60;;;;;;5096815;28;20040;-74
2021/09/17 07:33:46;;;;;;;5.15;4.32;;;18.50;64.20;;;;;;5092568;28;20064;-73
2021/09/17 07:36:11;;;;;;;7.07;4.75;;;18.50;56.70;;;;;;5096028;28;20050;-74
2021/09/17 07:38:37;;;;;;;5.90;4.20;;;18.40;54.50;;;;;;5096332;28;20044;-73
2021/09/17 07:41:03;;;;;;;7.22;4.50;;;18.40;56.70;;;;;;5096303;28;20040;-73
2021/09/17 07:43:29;;;;;;;5.40;4.60;;;18.50;62.60;;;;;;5096982;28;20368;-73
2021/09/17 07:45:55;;;;;;;5.10;4.25;;;18.40;44.30;;;;;;5096784;28;20047;-73
2021/09/17 07:48:21;;;;;;;6.85;4.30;;;18.40;57.30;;;;;;5097696;28;20039;-73
2021/09/17 07:50:46;;;;;;;6.88;4.45;;;18.40;66.10;;;;;;5096433;28;20032;-73
2021/09/17 07:53:12;;;;;;;4.65;4.20;;;18.50;57.00;;;;;;5096220;28;20043;-73
2021/09/17 07:55:38;;;;;;;5.47;4.32;;;18.50;64.20;;;;;;5090527;28;20623;-74
2021/09/17 07:58:05;;;;;;;5.32;4.60;;;18.50;53.70;;;;;;5091031;28;20040;-74
2021/09/17 08:00:31;;;;;;;5.28;3.80;;;18.60;51.10;;;;;;5095354;28;20039;-73
2021/09/17 08:02:57;;;;;;;4.97;4.20;;;18.70;46.60;;;;;;5095841;28;20044;-74
2021/09/17 08:05:23;;;;;;;5.15;3.35;;;18.70;54.80;;;;;;5095559;28;20056;-74
2021/09/17 08:07:52;;;;;;;4.75;3.78;;;18.80;47.40;;;;;;5095458;28;20068;-74
2021/09/17 08:10:18;;;;;;;4.45;3.45;;;18.80;30.70;;;;;;5095973;28;20502;-73
2021/09/17 08:12:44;;;;;;;3.92;3.63;;;18.80;28.70;;;;;;5095647;28;20040;-74
2021/09/17 08:15:11;;;;;;;4.43;4.00;;;18.80;45.40;;;;;;5096321;28;20048;-73
2021/09/17 08:17:37;;;;;;;6.75;3.70;;;18.80;48.00;;;;;;5096377;28;20067;-73
2021/09/17 08:20:07;;;;;;;5.90;3.80;;;18.80;47.50;;;;;;5096651;28;20040;-74
2021/09/17 08:22:33;;;;;;;7.63;3.95;;;18.80;41.00;;;;;;5096604;28;20032;-75
2021/09/17 08:24:59;;;;;;;3.90;3.53;;;18.80;43.00;;;;;;5096313;28;20085;-74
2021/09/17 08:27:25;;;;;;;4.55;3.53;;;18.80;50.60;;;;;;5093367;28;20044;-74
2021/09/17 08:29:51;;;;;;;3.97;3.20;;;18.80;36.70;;;;;;5093865;28;20054;-73
2021/09/17 08:32:17;;;;;;;3.42;3.22;;;18.80;52.70;;;;;;5095275;28;20506;-74
2021/09/17 08:34:43;;;;;;;4.72;3.47;;;18.90;37.40;;;;;;5096747;28;20044;-73
2021/09/17 08:37:09;;;;;;;3.53;3.22;;;18.90;36.10;;;;;;5096014;28;20517;-72
2021/09/17 08:39:37;;;;;;;4.28;3.20;;;19.00;20.60;;;;;;5095408;28;20182;-72
2021/09/17 08:42:07;;;;;;;3.70;2.85;;;19.00;15.00;;;;;;5095672;28;20518;-72
2021/09/17 08:44:33;;;;;;;4.55;3.20;;;19.10;23.90;;;;;;5095619;28;20036;-72
2021/09/17 08:46:59;;;;;;;3.55;3.25;;;19.10;8.80;;;;;;5095634;28;20134;-72
2021/09/17 08:49:24;;;;;;;4.18;2.85;;;19.20;1.00;;;;;;5095817;28;20078;-72
2021/09/17 08:51:53;;;;;;;3.72;3.22;;;19.20;9.70;;;;;;5095726;28;20058;-72
2021/09/17 08:54:18;;;;;;;4.05;3.05;;;19.30;12.50;;;;;;5095328;28;20125;-72
2021/09/17 08:56:44;;;;;;;3.35;3.05;;;19.40;1.00;;;;;;5095628;28;20071;-72
2021/09/17 08:59:10;;;;;;;3.38;3.08;;;19.40;8.60;;;;;;5095683;28;20039;-72
2021/09/17 09:01:36;;;;;;;4.90;3.38;;;19.40;9.40;;;;;;5095041;28;20089;-72
2021/09/17 09:04:07;;;;;;;4.03;3.00;;;19.50;12.90;;;;;;5095899;28;20044;-72
2021/09/17 09:06:38;;;;;;;4.63;3.70;;;19.50;6.20;;;;;;5095795;28;20056;-72
2021/09/17 09:09:16;;;;;;;3.63;3.33;;;19.50;3.60;;;;;;5094686;28;20092;-72
2021/09/17 09:11:44;;;;;;;6.47;3.38;;;19.50;8.90;;;;;;5092685;28;20395;-72
2021/09/17 09:14:13;;;;;;;4.50;3.22;;;19.60;3.00;;;;;;5089407;28;20036;-72
2021/09/17 09:16:45;;;;;;;4.22;3.28;;;19.60;14.50;;;;;;5093161;28;20040;-72
2021/09/17 09:19:24;;;;;;;4.80;3.60;;;19.50;1.00;;;;;;5093888;28;20070;-72
2021/09/17 09:21:53;;;;;;;4.00;3.25;;;19.60;1.00;;;;;;5093988;28;20498;-73
2021/09/17 09:24:22;;;;;;;5.22;3.25;;;19.60;2.80;;;;;;5094254;28;20040;-73
2021/09/17 09:27:08;;;;;;;6.53;3.55;;;19.70;5.30;;;;;;5095082;28;20054;-73
2021/09/17 09:29:35;;;;;;;7.68;3.58;;;19.80;10.40;;;;;;5095259;28;20032;-73
2021/09/17 09:32:01;;;;;;;4.85;3.42;;;19.80;1.00;;;;;;5095041;28;20499;-73
2021/09/17 09:34:55;;;;;;;4.10;3.55;;;19.80;1.00;;;;;;5094490;28;20097;-73
2021/09/17 09:37:30;;;;;;;3.50;3.20;;;19.80;4.00;;;;;;5094350;28;20042;-73
2021/09/17 09:39:58;;;;;;;6.68;3.75;;;19.80;1.00;;;;;;5094494;28;20036;-74
2021/09/17 09:42:32;;;;;;;4.07;3.67;;;19.90;1.00;;;;;;5094948;28;20062;-73
2021/09/17 09:45:22;;;;;;;3.45;2.92;;;19.80;1.00;;;;;;5095104;28;20044;-74
2021/09/17 09:47:53;;;;;;;3.88;3.42;;;19.80;1.00;;;;;;5092637;28;20526;-74
2021/09/17 09:50:23;;;;;;;3.83;3.53;;;19.80;3.20;;;;;;5092473;28;20031;-74
2021/09/17 09:53:01;;;;;;;3.95;3.25;;;19.80;10.90;;;;;;5093726;28;20047;-73
2021/09/17 09:55:28;;;;;;;3.95;3.45;;;19.80;5.00;;;;;;5094586;28;20042;-74
2021/09/17 09:57:55;;;;;;;5.68;3.25;;;19.90;1.00;;;;;;5094019;28;20040;-74
2021/09/17 10:00:23;;;;;;;4.43;3.50;;;20.00;1.00;;;;;;5094570;28;20036;-74
2021/09/17 10:02:50;;;;;;;4.95;3.53;;;20.10;1.00;;;;;;5094119;28;20043;-74
2021/09/17 10:05:19;;;;;;;3.65;3.35;;;20.20;1.00;;;;;;5094093;28;20123;-74
2021/09/17 10:07:45;;;;;;;6.03;3.70;;;20.30;1.00;;;;;;5094000;28;20051;-74
2021/09/17 10:10:13;;;;;;;3.33;3.03;;;20.50;1.00;;;;;;5092602;28;20043;-73
2021/09/17 10:12:40;;;;;;;3.92;3.53;;;20.70;1.00;;;;;;5093439;28;20494;-74
2021/09/17 10:15:08;;;;;;;3.28;2.55;;;20.60;1.00;;;;;;5093467;28;20032;-74
2021/09/17 10:17:38;;;;;;;3.05;2.85;;;20.50;1.00;;;;;;5093730;28;20047;-73
2021/09/17 10:20:09;;;;;;;3.83;2.67;;;20.50;1.00;;;;;;5093857;28;20055;-77
2021/09/17 10:22:40;;;;;;;3.72;2.90;;;20.40;1.00;;;;;;5095702;28;20040;-77
2021/09/17 10:25:13;;;;;;;3.35;2.80;;;20.40;1.00;;;;;;5096515;28;20088;-78
2021/09/17 10:27:43;;;;;;;3.22;2.92;;;20.50;1.00;;;;;;5095344;28;20074;-78
2021/09/17 10:30:15;;;;;;;3.38;2.60;;;20.80;1.00;;;;;;5095022;28;20076;-77
2021/09/17 10:32:48;;;;;;;2.78;2.50;;;21.30;1.00;;;;;;5097662;28;20051;-77
2021/09/17 10:35:26;;;;;;;3.08;2.78;;;21.90;1.00;;;;;;5098226;28;20040;-78
2021/09/17 10:38:10;;;;;;;4.72;4.25;;;22.00;1.00;;;;;;5097765;28;20118;-78
2021/09/17 10:40:43;;;;;;;4.50;3.22;;;22.00;1.00;;;;;;5098381;28;20040;-78
2021/09/17 10:43:09;;;;;;;2.50;2.30;;;21.90;1.00;;;;;;5097206;28;20040;-78
2021/09/17 10:45:45;;;;;;;4.00;2.70;;;21.70;1.00;;;;;;5097874;28;20509;-78
2021/09/17 10:48:32;;;;;;;3.10;2.80;;;21.70;1.00;;;;;;5098066;28;20051;-78
2021/09/17 10:51:04;;;;;;;2.95;2.65;;;21.60;1.00;;;;;;5086969;28;20075;-78
2021/09/17 10:53:39;;;;;;;4.15;3.40;;;21.90;1.00;;;;;;5098160;28;20028;-78
2021/09/17 10:56:12;;;;;;;3.72;2.53;;;22.10;1.00;;;;;;5098377;28;20071;-78
2021/09/17 10:58:44;;;;;;;2.83;2.53;;;22.40;1.00;;;;;;5097794;28;20075;-78
2021/09/17 11:01:15;;;;;;;4.28;3.20;;;22.80;1.00;;;;;;5097979;28;20043;-78
2021/09/17 11:03:48;;;;;;;3.80;2.97;;;23.00;1.00;;;;;;5098596;28;20040;-78
2021/09/17 11:06:25;;;;;;;4.13;2.80;;;23.00;1.00;;;;;;5098221;28;20134;-78
2021/09/17 11:08:53;;;;;;;3.20;2.90;;;23.00;1.00;;;;;;5097857;28;20040;-78
2021/09/17 11:11:31;;;;;;;3.58;3.28;;;22.80;1.00;;;;;;5098477;28;20574;-78
2021/09/17 11:14:02;;;;;;;2.80;2.60;;;22.40;1.00;;;;;;5098326;28;20509;-78
2021/09/17 11:16:30;;;;;;;4.85;2.70;;;22.00;1.00;;;;;;5098056;28;20058;-78
2021/09/17 11:19:07;;;;;;;3.63;2.78;;;21.90;1.00;;;;;;5098328;28;20044;-78
2021/09/17 11:21:35;;;;;;;4.85;2.92;;;21.80;1.00;;;;;;5097920;28;20558;-78
2021/09/17 11:24:01;;;;;;;3.47;3.17;;;21.80;1.00;;;;;;5097887;28;20471;-78
2021/09/17 11:26:31;;;;;;;4.53;3.03;;;22.00;1.00;;;;;;5097287;28;20051;-78
2021/09/17 11:29:06;;;;;;;3.30;3.00;;;22.30;1.00;;;;;;5097211;28;20123;-78
2021/09/17 11:31:53;;;;;;;3.15;2.85;;;22.70;1.00;;;;;;5097506;28;20040;-77
2021/09/17 11:34:25;;;;;;;4.25;2.83;;;22.80;1.00;;;;;;5096848;28;20036;-78
2021/09/17 11:36:54;;;;;;;2.80;2.35;;;22.80;1.00;;;;;;5097615;28;20044;-78
2021/09/17 11:39:21;;;;;;;3.97;2.67;;;22.90;1.00;;;;;;5098250;28;20063;-78
2021/09/17 11:41:53;;;;;;;4.50;2.90;;;23.00;1.00;;;;;;5097773;28;20043;-78
2021/09/17 11:44:36;;;;;;;4.50;3.20;;;23.00;1.00;;;;;;5097783;28;20115;-78
2021/09/17 11:47:10;;;;;;;4.32;3.63;;;22.60;1.00;;;;;;5097315;28;20056;-78
2021/09/17 11:49:46;;;;;;;4.10;3.47;;;22.40;1.00;;;;;;5097180;28;20032;-78
2021/09/17 11:52:17;;;;;;;3.65;3.20;;;22.20;1.00;;;;;;5097096;28;20043;-78
2021/09/17 11:55:04;;;;;;;3.85;3.00;;;22.30;1.00;;;;;;5093026;28;20032;-78
2021/09/17 11:57:36;;;;;;;3.28;2.80;;;22.50;1.00;;;;;;5092229;28;20385;-78
2021/09/17 12:00:17;;;;;;;4.20;2.85;;;22.80;1.00;;;;;;5092918;28;20056;-75
2021/09/17 12:02:44;;;;;;;3.67;2.78;;;23.00;1.00;;;;;;5095179;28;20540;-74
2021/09/17 12:05:17;;;;;;;3.78;2.50;;;23.00;1.00;;;;;;5095514;28;20139;-75
2021/09/17 12:07:44;;;;;;;3.28;3.00;;;23.10;1.00;;;;;;5095593;28;20537;-75
2021/09/17 12:10:17;;;;;;;2.90;2.60;;;23.10;1.00;;;;;;5095757;28;20035;-75
2021/09/17 12:12:46;;;;;;;2.78;2.58;;;22.90;1.00;;;;;;5094530;28;20529;-75
2021/09/17 12:15:23;;;;;;;3.50;2.97;;;22.60;1.00;;;;;;5093162;28;20127;-73
2021/09/17 12:17:53;;;;;;;4.03;3.25;;;22.40;1.00;;;;;;5096136;28;20055;-73
2021/09/17 12:20:19;;;;;;;3.28;3.00;;;22.20;1.00;;;;;;5094217;28;20036;-74
2021/09/17 12:22:55;;;;;;;3.15;2.78;;;22.20;1.00;;;;;;5096132;28;20028;-73
2021/09/17 12:25:29;;;;;;;2.33;2.13;;;22.20;1.00;;;;;;5094583;28;20048;-74
2021/09/17 12:28:01;;;;;;;4.32;2.53;;;22.30;1.00;;;;;;5095262;28;20485;-74
2021/09/17 12:30:32;;;;;;;2.90;2.58;;;22.30;1.00;;;;;;5094812;28;20032;-73
2021/09/17 12:33:06;;;;;;;3.42;2.75;;;22.40;1.00;;;;;;5096317;28;20044;-73
2021/09/17 12:35:33;;;;;;;4.10;2.65;;;22.40;1.00;;;;;;5095644;28;20043;-74
2021/09/17 12:37:59;;;;;;;2.95;2.60;;;22.50;1.00;;;;;;5095933;28;20040;-74
2021/09/17 12:40:31;;;;;;;2.67;2.47;;;22.40;1.00;;;;;;5095800;28;20410;-74
2021/09/17 12:43:02;;;;;;;4.03;2.92;;;22.40;1.00;;;;;;5095880;28;20036;-74
2021/09/17 12:45:30;;;;;;;4.85;2.75;;;22.50;1.00;;;;;;5094975;28;20040;-73
2021/09/17 12:48:00;;;;;;;4.07;2.88;;;22.40;1.00;;;;;;5096023;28;20133;-74
2021/09/17 12:50:44;;;;;;;3.15;2.50;;;22.40;1.00;;;;;;5096236;28;20509;-74
2021/09/17 12:53:11;;;;;;;2.72;2.47;;;22.50;1.00;;;;;;5095245;28;20503;-74